Terminal Aerodrome Forecast
Issued by NWS

Home | Current Version | Previous Version | Text Only | Print | Product List | Glossary On
Versions: 1 2 3 4 5 6 7 8 9 10 11 12 13 14 15 16 17 18 19 20 21 22 23 24 25 26 27 28 29 30 31 32 33 34
382
FTUS43 KILX 171502 AAC
TAFBMI
TAF AMD
KBMI 171502Z 1715/1812 25015G20KT 1/2SM -DZ FG OVC003
      TEMPO 1716/1718 2SM BR
     FM171800 25015KT 4SM BR OVC003
     FM172100 25012KT P6SM OVC004
     FM180600 27011KT 5SM BR OVC009=

USA.gov is the U.S. government's official web portal to all federal, state and local government web resources and services.